Historique des mesures à Cassis (13260), France
Quotidien Résumé Aout 21, 2021 Unités:  Métrique/US    US   Métrique
Quotidien Hebdomadaire Mensuel Annuel
  Maximum: Minimum: Moyenne:
Température: 87.1 °F /  30.6 °C 72.1 °F /  22.3 °C 79.7 °F /  26.5 °C
Point de rosée: 72 °F /  22.2 °C 63.7 °F /  17.6 °C 68.2 °F /  20.1 °C
Humidité: 82% 55% 69%
Vitesse du vent: 5.8mph /  9.4km/h - 0.7mph /  1.1km/h
Rafales: 7.8mph /  12.6km/h - -
Vent- - South
Pression: 29.7 in /  1007.2 hPa 29.7 in /  1005.4 hPa -
Précipitations: 0 in /  0.0 mm    
Historical Graphs
 
 
Mesures pour : Aout 21, 2021
Heure Temperature Point de rosée Pression Vent Vitesse du vent Rafales Humidité Pluie (par heure)
00:10 75 °F /  23.9 °C 68.2 °F /  20.1 °C 29.7in /  1006.5hPa Calm   5.2mph /  8.3km/h 79% 0in /  0.0mm
01:11 74.1 °F /  23.4 °C 67.6 °F /  19.8 °C 29.7in /  1006.5hPa Calm   0.9mph /  1.4km/h 80% 0in /  0.0mm
02:11 73.9 °F /  23.3 °C 68.2 °F /  20.1 °C 29.7in /  1006.1hPa Calm   2.9mph /  4.7km/h 82% 0in /  0.0mm
03:11 73.8 °F /  23.2 °C 68 °F /  20 °C 29.7in /  1006.0hPa Calm   2.5mph /  4km/h 82% 0in /  0.0mm
04:10 73.4 °F /  23 °C 67.6 °F /  19.8 °C 29.7in /  1005.4hPa SSE 2mph /  3.2km/h 3.8mph /  6.1km/h 82% 0in /  0.0mm
05:11 72.3 °F /  22.4 °C 66.6 °F /  19.2 °C 29.7in /  1005.4hPa Calm     82% 0in /  0.0mm
06:10 72.1 °F /  22.3 °C 66.4 °F /  19.1 °C 29.7in /  1005.6hPa Calm   2.9mph /  4.7km/h 82% 0in /  0.0mm
07:10 72.9 °F /  22.7 °C 66.4 °F /  19.1 °C 29.7in /  1006.2hPa Calm   4mph /  6.5km/h 80% 0in /  0.0mm
08:11 80.4 °F /  26.9 °C 71.1 °F /  21.7 °C 29.7in /  1006.1hPa Calm   4.2mph /  6.8km/h 73% 0in /  0.0mm
09:11 79.3 °F /  26.3 °C 68.4 °F /  20.2 °C 29.7in /  1006.5hPa Calm   3.8mph /  6.1km/h 69% 0in /  0.0mm
10:10 81.5 °F /  27.5 °C 68.2 °F /  20.1 °C 29.7in /  1006.4hPa Calm   7.8mph /  12.6km/h 64% 0in /  0.0mm
11:11 85.8 °F /  29.9 °C 70.3 °F /  21.3 °C 29.7in /  1006.6hPa Calm   5.8mph /  9.4km/h 60% 0in /  0.0mm
12:10 87.1 °F /  30.6 °C 70.5 °F /  21.4 °C 29.7in /  1007.1hPa SW 1.4mph /  2.2km/h 4.9mph /  7.9km/h 58% 0in /  0.0mm
13:11 85.8 °F /  29.9 °C 70.3 °F /  21.3 °C 29.7in /  1007.2hPa Calm   7.1mph /  11.5km/h 60% 0in /  0.0mm
14:11 86.5 °F /  30.3 °C 71.1 °F /  21.7 °C 29.7in /  1007.2hPa Calm   3.8mph /  6.1km/h 60% 0in /  0.0mm
15:10 86.5 °F /  30.3 °C 72 °F /  22.2 °C 29.7in /  1007.0hPa Calm   4.9mph /  7.9km/h 62% 0in /  0.0mm
16:11 86.9 °F /  30.5 °C 71.4 °F /  21.9 °C 29.7in /  1006.7hPa South 5.8mph /  9.4km/h 7mph /  11.2km/h 60% 0in /  0.0mm
17:11 85.6 °F /  29.8 °C 70.2 °F /  21.2 °C 29.7in /  1006.2hPa SW 3.1mph /  5km/h 5.2mph /  8.3km/h 60% 0in /  0.0mm
18:11 84.9 °F /  29.4 °C 66.9 °F /  19.4 °C 29.7in /  1006.0hPa Calm   5.3mph /  8.6km/h 55% 0in /  0.0mm
19:11 83.8 °F /  28.8 °C 66.9 °F /  19.4 °C 29.7in /  1006.5hPa ESE 4.5mph /  7.2km/h 4.7mph /  7.6km/h 57% 0in /  0.0mm
20:11 82.2 °F /  27.9 °C 66.9 °F /  19.4 °C 29.7in /  1006.9hPa Calm   5.2mph /  8.3km/h 60% 0in /  0.0mm
21:10 78.1 °F /  25.6 °C 65.3 °F /  18.5 °C 29.7in /  1006.5hPa Calm   2.7mph /  4.3km/h 65% 0in /  0.0mm
22:11 75.9 °F /  24.4 °C 64.6 °F /  18.1 °C 29.7in /  1006.9hPa Calm     68% 0in /  0.0mm
23:11 75 °F /  23.9 °C 63.7 °F /  17.6 °C 29.7in /  1007.2hPa Calm     68% 0in /  0.0mm
Observations météo à CASSIS
WU-History script by Weather Underground - 2 mb